Terminal Aerodrome Forecast
Issued by NWS Buffalo, NY

Home | Current Version | Previous Version | Text Only | Print | Product List | Glossary On
Versions: 1 2 3 4 5 6 7 8 9 10 11 12 13 14 15 16 17 18 19 20 21 22 23 24 25 26 27 28 29 30 31 32
000
FTUS41 KBUF 201100
TAFART
TAF
KART 201133Z 2012/2112 18006KT P6SM OVC080
     FM202300 17005KT P6SM VCSH OVC045
     FM210400 18008KT 6SM -SHRA OVC030
     FM210600 15008KT 4SM SHRA OVC015
     FM210900 12008KT 4SM SHRA OVC025=

USA.gov is the U.S. government's official web portal to all federal, state and local government web resources and services.